createdAt,value
2022-12-19T00:00:02.480Z,1.50
2022-12-19T00:01:21.549Z,1.50
2022-12-19T00:02:24.353Z,1.50
2022-12-19T00:03:26.337Z,1.50
2022-12-19T00:04:28.302Z,1.50
2022-12-19T00:05:31.182Z,1.50
2022-12-19T00:06:33.014Z,1.50
2022-12-19T00:07:34.788Z,1.50
2022-12-19T00:08:37.280Z,1.50
2022-12-19T00:09:39.224Z,1.50
2022-12-19T00:10:43.001Z,1.50
2022-12-19T00:11:48.687Z,1.50
2022-12-19T00:12:50.508Z,1.60
2022-12-19T00:13:52.337Z,1.50
2022-12-19T00:14:54.089Z,1.60
2022-12-19T00:16:01.484Z,1.50
2022-12-19T00:17:04.772Z,1.60
2022-12-19T00:18:07.064Z,1.60
2022-12-19T00:19:10.339Z,1.50
2022-12-19T00:20:12.341Z,1.60
2022-12-19T00:21:20.484Z,1.50
2022-12-19T00:22:22.168Z,1.60
2022-12-19T00:23:24.017Z,1.60
2022-12-19T00:24:27.097Z,1.60
2022-12-19T00:25:31.837Z,1.60
2022-12-19T00:26:38.133Z,1.60
2022-12-19T00:27:39.995Z,1.60
2022-12-19T00:28:43.300Z,1.60
2022-12-19T00:29:45.079Z,1.60
2022-12-19T00:30:47.065Z,1.60
2022-12-19T00:31:48.995Z,1.60
2022-12-19T00:32:50.883Z,1.60
2022-12-19T00:33:56.586Z,1.60
2022-12-19T00:34:58.355Z,1.60
2022-12-19T00:36:06.762Z,1.60
2022-12-19T00:37:08.858Z,1.60
2022-12-19T00:38:10.609Z,1.60
2022-12-19T00:39:13.764Z,1.60
2022-12-19T00:40:15.535Z,1.60
2022-12-19T00:41:19.972Z,1.60
2022-12-19T00:42:21.693Z,1.60
2022-12-19T00:43:23.883Z,1.60
2022-12-19T00:44:26.084Z,1.60
2022-12-19T00:45:28.744Z,1.60
2022-12-19T00:46:35.309Z,1.60
2022-12-19T00:47:37.116Z,1.60
2022-12-19T00:48:38.969Z,1.60
2022-12-19T00:49:40.861Z,1.70
2022-12-19T00:50:44.301Z,1.60
2022-12-19T00:51:46.141Z,1.70
2022-12-19T00:52:47.978Z,1.70
2022-12-19T00:53:51.515Z,1.70
2022-12-19T00:54:53.815Z,1.70
2022-12-19T00:55:55.813Z,1.70
2022-12-19T00:56:57.638Z,1.60
2022-12-19T00:58:00.547Z,1.70
2022-12-19T00:59:02.850Z,1.70
2022-12-19T01:00:05.414Z,1.60
2022-12-19T01:01:19.439Z,1.70
2022-12-19T01:02:21.403Z,1.70
2022-12-19T01:03:24.069Z,1.70
2022-12-19T01:04:28.524Z,1.70
2022-12-19T01:05:31.227Z,1.70
2022-12-19T01:06:33.486Z,1.70
2022-12-19T01:07:36.526Z,1.70
2022-12-19T01:08:38.840Z,1.70
2022-12-19T01:09:40.740Z,1.70
2022-12-19T01:10:50.184Z,1.70
2022-12-19T01:12:10.441Z,1.70
2022-12-19T01:13:12.306Z,1.80
2022-12-19T01:14:20.761Z,1.70
2022-12-19T01:15:24.328Z,1.70
2022-12-19T01:16:26.207Z,1.70
2022-12-19T01:17:28.032Z,1.70
2022-12-19T01:18:30.217Z,1.80
2022-12-19T01:19:32.214Z,1.80
2022-12-19T01:20:33.984Z,1.80
2022-12-19T01:21:35.987Z,1.80
2022-12-19T01:22:37.726Z,1.80
2022-12-19T01:23:40.683Z,1.80
2022-12-19T01:24:42.784Z,1.80
2022-12-19T01:25:52.221Z,1.80
2022-12-19T01:26:54.000Z,1.80
2022-12-19T01:27:56.857Z,1.80
2022-12-19T01:28:58.837Z,1.80
2022-12-19T01:30:03.275Z,1.80
2022-12-19T01:31:07.725Z,1.80
2022-12-19T01:32:11.191Z,1.80
2022-12-19T01:33:14.335Z,1.80
2022-12-19T01:34:16.705Z,1.90
2022-12-19T01:35:21.226Z,1.90
2022-12-19T01:36:24.025Z,1.90
2022-12-19T01:37:26.238Z,1.90
2022-12-19T01:38:27.985Z,1.90
2022-12-19T01:39:29.968Z,1.90
2022-12-19T01:40:34.793Z,1.90
2022-12-19T01:41:37.728Z,1.90
2022-12-19T01:42:39.955Z,1.90
2022-12-19T01:44:01.571Z,1.90
2022-12-19T01:45:11.103Z,1.90
2022-12-19T01:46:16.994Z,1.90
2022-12-19T01:47:24.710Z,1.90
2022-12-19T01:48:43.865Z,1.90
2022-12-19T01:49:46.194Z,2.00
2022-12-19T01:51:03.995Z,2.00
2022-12-19T01:52:10.310Z,2.00
2022-12-19T01:53:20.777Z,2.00
2022-12-19T01:54:35.031Z,2.00
2022-12-19T01:55:39.774Z,2.00
2022-12-19T01:56:47.573Z,2.00
2022-12-19T01:57:51.843Z,2.10
2022-12-19T01:59:06.157Z,2.10
2022-12-19T02:00:12.633Z,2.10
2022-12-19T02:01:17.659Z,2.10
2022-12-19T02:02:26.735Z,2.10
2022-12-19T02:03:30.595Z,2.10
2022-12-19T02:04:33.798Z,2.20
2022-12-19T02:05:35.888Z,2.20
2022-12-19T02:06:40.404Z,2.20
2022-12-19T02:07:44.325Z,2.20
2022-12-19T02:08:48.430Z,2.20
2022-12-19T02:09:57.167Z,2.20
2022-12-19T02:11:02.835Z,2.20
2022-12-19T02:12:05.229Z,2.20
2022-12-19T02:13:12.495Z,2.30
2022-12-19T02:14:16.251Z,2.30
2022-12-19T02:15:20.513Z,2.30
2022-12-19T02:16:53.357Z,2.40
2022-12-19T02:18:08.142Z,2.30
2022-12-19T02:19:33.817Z,2.40
2022-12-19T02:20:47.859Z,2.40
2022-12-19T02:21:57.204Z,2.40
2022-12-19T02:23:39.173Z,2.40
2022-12-19T02:25:32.028Z,2.40
2022-12-19T02:26:45.951Z,2.50
2022-12-19T02:28:18.359Z,2.50
2022-12-19T02:29:50.963Z,2.50
2022-12-19T02:31:17.740Z,2.60
2022-12-19T02:32:26.633Z,2.60
2022-12-19T02:33:41.659Z,2.60
2022-12-19T02:35:17.167Z,2.60
2022-12-19T02:36:26.575Z,2.60
2022-12-19T02:37:34.224Z,2.60
2022-12-19T02:38:56.408Z,2.60
2022-12-19T02:40:19.462Z,2.70
2022-12-19T02:41:43.527Z,2.70
2022-12-19T02:42:59.544Z,2.60
2022-12-19T02:44:04.361Z,2.70
2022-12-19T02:45:11.752Z,2.70
2022-12-19T02:46:20.293Z,2.70
2022-12-19T02:47:22.962Z,2.70
2022-12-19T02:48:25.222Z,2.70
2022-12-19T02:49:35.167Z,2.80
2022-12-19T02:50:43.345Z,2.80
2022-12-19T02:51:46.555Z,2.80
2022-12-19T02:52:49.333Z,2.80
2022-12-19T02:53:51.644Z,2.80
2022-12-19T02:54:59.091Z,2.80
2022-12-19T02:56:11.369Z,2.80
2022-12-19T02:57:30.029Z,2.80
2022-12-19T02:59:03.207Z,2.90
2022-12-19T03:00:11.336Z,2.90
2022-12-19T03:01:46.124Z,2.90
2022-12-19T03:03:23.694Z,3.00
2022-12-19T03:05:01.777Z,3.00
2022-12-19T03:06:18.224Z,3.00
2022-12-19T03:07:45.658Z,3.00
2022-12-19T03:08:56.027Z,3.00
2022-12-19T03:10:22.936Z,3.00
2022-12-19T03:11:32.653Z,3.00
2022-12-19T03:12:58.107Z,3.00
2022-12-19T03:14:24.642Z,3.00
2022-12-19T03:15:32.763Z,3.00
2022-12-19T03:16:36.868Z,3.00
2022-12-19T03:17:40.206Z,3.00
2022-12-19T03:18:42.428Z,3.00
2022-12-19T03:19:45.874Z,3.00
2022-12-19T03:20:59.793Z,3.00
2022-12-19T03:22:02.238Z,3.00
2022-12-19T03:23:04.422Z,3.00
2022-12-19T03:24:09.104Z,3.10
2022-12-19T03:25:11.296Z,3.10
2022-12-19T03:26:19.076Z,3.10
2022-12-19T03:27:27.819Z,3.10
2022-12-19T03:28:37.989Z,3.10
2022-12-19T03:30:08.899Z,3.10
2022-12-19T03:31:13.077Z,3.10
2022-12-19T03:32:18.097Z,3.10
2022-12-19T03:33:25.843Z,3.10
2022-12-19T03:34:37.236Z,3.10
2022-12-19T03:35:42.044Z,3.10
2022-12-19T03:36:51.635Z,3.10
2022-12-19T03:37:57.416Z,3.20
2022-12-19T03:39:02.148Z,3.20
2022-12-19T03:40:13.713Z,3.20
2022-12-19T03:41:38.646Z,3.20
2022-12-19T03:43:01.143Z,3.30
2022-12-19T03:44:05.160Z,3.30
2022-12-19T03:45:08.850Z,3.30
2022-12-19T03:46:25.092Z,3.30
2022-12-19T03:47:45.539Z,3.30
2022-12-19T03:48:52.982Z,3.40
2022-12-19T03:49:55.301Z,3.40
2022-12-19T03:51:30.963Z,3.40
2022-12-19T03:52:44.728Z,3.40
2022-12-19T03:53:51.891Z,3.40
2022-12-19T03:55:24.141Z,3.40
2022-12-19T03:56:29.217Z,3.40
2022-12-19T03:57:43.752Z,3.40
2022-12-19T03:58:51.832Z,3.40
2022-12-19T04:00:02.558Z,3.50
2022-12-19T04:01:14.775Z,3.50
2022-12-19T04:02:20.283Z,3.50
2022-12-19T04:03:24.282Z,3.50
2022-12-19T04:04:30.985Z,3.50
2022-12-19T04:05:33.815Z,3.50
2022-12-19T04:06:37.441Z,3.50
2022-12-19T04:07:41.152Z,3.50
2022-12-19T04:08:45.792Z,3.50
2022-12-19T04:09:49.226Z,3.50
2022-12-19T04:10:56.292Z,3.50
2022-12-19T04:12:03.314Z,3.50
2022-12-19T04:13:12.607Z,3.50
2022-12-19T04:14:29.756Z,3.50
2022-12-19T04:15:58.625Z,3.60
2022-12-19T04:17:37.755Z,3.50
2022-12-19T04:18:44.756Z,3.60
2022-12-19T04:19:59.910Z,3.60
2022-12-19T04:21:10.653Z,3.60
2022-12-19T04:22:25.550Z,3.60
2022-12-19T04:23:39.960Z,3.60
2022-12-19T04:24:44.781Z,3.60
2022-12-19T04:25:50.197Z,3.60
2022-12-19T04:26:54.638Z,3.60
2022-12-19T04:28:04.040Z,3.60
2022-12-19T04:29:07.976Z,3.60
2022-12-19T04:30:15.154Z,3.60
2022-12-19T04:31:18.327Z,3.60
2022-12-19T04:32:21.072Z,3.60
2022-12-19T04:33:24.406Z,3.60
2022-12-19T04:34:26.489Z,3.60
2022-12-19T04:35:28.296Z,3.60
2022-12-19T04:36:30.075Z,3.60
2022-12-19T04:37:32.448Z,3.60
2022-12-19T04:38:36.097Z,3.60
2022-12-19T04:39:38.505Z,3.60
2022-12-19T04:40:41.741Z,3.70
2022-12-19T04:41:43.882Z,3.70
2022-12-19T04:42:45.864Z,3.70
2022-12-19T04:43:47.678Z,3.70
2022-12-19T04:44:49.513Z,3.80
2022-12-19T04:45:56.952Z,3.80
2022-12-19T04:47:00.891Z,3.80
2022-12-19T04:48:02.645Z,3.80
2022-12-19T04:49:04.758Z,3.80
2022-12-19T04:50:07.100Z,3.90
2022-12-19T04:51:09.733Z,3.90
2022-12-19T04:52:11.603Z,3.90
2022-12-19T04:53:13.605Z,3.90
2022-12-19T04:54:15.514Z,3.90
2022-12-19T04:55:17.374Z,3.90
2022-12-19T04:56:19.790Z,3.90
2022-12-19T04:57:22.370Z,3.90
2022-12-19T04:58:24.107Z,3.90
2022-12-19T04:59:26.866Z,3.90
2022-12-19T05:00:29.191Z,3.90
2022-12-19T05:01:31.110Z,3.90
2022-12-19T05:02:33.334Z,3.90
2022-12-19T05:03:36.721Z,3.90
2022-12-19T05:04:38.582Z,3.90
2022-12-19T05:05:40.456Z,3.90
2022-12-19T05:06:42.452Z,4.00
2022-12-19T05:07:44.335Z,3.90
2022-12-19T05:08:46.645Z,4.00
2022-12-19T05:09:48.931Z,4.10
2022-12-19T05:10:50.805Z,4.10
2022-12-19T05:11:52.648Z,4.10
2022-12-19T05:12:54.988Z,4.10
2022-12-19T05:13:58.826Z,4.20
2022-12-19T05:15:00.677Z,4.20
2022-12-19T05:16:09.724Z,4.20
2022-12-19T05:17:11.557Z,4.20
2022-12-19T05:18:14.350Z,4.20
2022-12-19T05:19:16.820Z,4.20
2022-12-19T05:20:19.590Z,4.20
2022-12-19T05:21:22.757Z,4.20
2022-12-19T05:22:27.817Z,4.20
2022-12-19T05:23:29.966Z,4.20
2022-12-19T05:24:32.562Z,4.10
2022-12-19T05:25:36.000Z,4.20
2022-12-19T05:26:39.378Z,4.20
2022-12-19T05:27:41.247Z,4.20
2022-12-19T05:28:43.042Z,4.20
2022-12-19T05:29:44.839Z,4.20
2022-12-19T05:30:52.017Z,4.20
2022-12-19T05:31:54.490Z,4.20
2022-12-19T05:32:56.312Z,4.20
2022-12-19T05:33:58.206Z,4.20
2022-12-19T05:35:00.012Z,4.20
2022-12-19T05:36:02.376Z,4.20
2022-12-19T05:37:04.323Z,4.20
2022-12-19T05:38:07.197Z,4.20
2022-12-19T05:39:09.430Z,4.20
2022-12-19T05:40:11.760Z,4.20
2022-12-19T05:41:17.744Z,4.30
2022-12-19T05:42:19.546Z,4.30
2022-12-19T05:43:21.760Z,4.30
2022-12-19T05:44:23.540Z,4.40
2022-12-19T05:45:25.494Z,4.40
2022-12-19T05:46:29.245Z,4.40
2022-12-19T05:47:31.006Z,4.50
2022-12-19T05:48:34.367Z,4.50
2022-12-19T05:49:36.498Z,4.50
2022-12-19T05:50:41.459Z,4.50
2022-12-19T05:51:47.351Z,4.60
2022-12-19T05:52:49.402Z,4.60
2022-12-19T05:53:51.464Z,4.70
2022-12-19T05:54:53.379Z,4.70
2022-12-19T05:56:04.971Z,4.80
2022-12-19T05:57:06.738Z,4.80
2022-12-19T05:58:08.661Z,4.80
2022-12-19T05:59:11.817Z,4.80
2022-12-19T06:00:16.382Z,4.90
2022-12-19T06:01:27.671Z,4.90
2022-12-19T06:02:34.890Z,5.00
2022-12-19T06:03:38.912Z,5.10
2022-12-19T06:04:40.902Z,5.20
2022-12-19T06:05:44.082Z,5.20
2022-12-19T06:06:47.135Z,5.30
2022-12-19T06:07:49.101Z,5.30
2022-12-19T06:08:59.223Z,5.30
2022-12-19T06:10:01.216Z,5.40
2022-12-19T06:11:05.137Z,5.30
2022-12-19T06:12:07.257Z,5.40
2022-12-19T06:13:11.490Z,5.40
2022-12-19T06:14:14.390Z,5.40
2022-12-19T06:15:17.448Z,5.40
2022-12-19T06:16:21.188Z,5.50
2022-12-19T06:17:23.103Z,5.50
2022-12-19T06:18:25.285Z,5.50
2022-12-19T06:19:27.271Z,5.50
2022-12-19T06:20:29.178Z,5.50
2022-12-19T06:21:31.242Z,5.50
2022-12-19T06:22:34.343Z,5.50
2022-12-19T06:23:37.277Z,5.50
2022-12-19T06:24:39.035Z,5.50
2022-12-19T06:25:40.862Z,5.50
2022-12-19T06:26:43.356Z,5.50
2022-12-19T06:27:45.264Z,5.60
2022-12-19T06:28:48.553Z,5.60
2022-12-19T06:29:51.970Z,5.60
2022-12-19T06:30:56.338Z,5.60
2022-12-19T06:31:58.344Z,5.60
2022-12-19T06:33:01.505Z,5.60
2022-12-19T06:34:03.375Z,5.70
2022-12-19T06:35:05.739Z,5.70
2022-12-19T06:36:19.023Z,5.70
2022-12-19T06:37:20.859Z,5.80
2022-12-19T06:38:22.575Z,5.80
2022-12-19T06:39:25.148Z,5.80
2022-12-19T06:40:45.688Z,5.80
2022-12-19T06:42:06.512Z,5.90
2022-12-19T06:43:08.821Z,5.90
2022-12-19T06:44:12.797Z,5.90
2022-12-19T06:45:14.556Z,6.00
2022-12-19T06:46:16.390Z,6.00
2022-12-19T06:47:18.971Z,6.00
2022-12-19T06:48:21.218Z,6.00
2022-12-19T06:49:23.013Z,6.00
2022-12-19T06:50:27.701Z,6.10
2022-12-19T06:51:29.693Z,6.10
2022-12-19T06:52:31.988Z,6.10
2022-12-19T06:53:34.533Z,6.20
2022-12-19T06:54:36.724Z,6.30
2022-12-19T06:55:38.869Z,6.30
2022-12-19T06:56:42.194Z,6.40
2022-12-19T06:57:46.672Z,6.40
2022-12-19T06:58:49.290Z,6.40
2022-12-19T06:59:51.720Z,6.40
2022-12-19T07:00:54.271Z,6.50
2022-12-19T07:02:07.603Z,6.50
2022-12-19T07:03:13.775Z,6.50
2022-12-19T07:04:19.592Z,6.50
2022-12-19T07:05:23.250Z,6.50
2022-12-19T07:06:25.043Z,6.50
2022-12-19T07:07:28.648Z,6.50
2022-12-19T07:08:31.148Z,6.50
2022-12-19T07:09:35.621Z,6.50
2022-12-19T07:10:38.121Z,6.50
2022-12-19T07:11:40.022Z,6.60
2022-12-19T07:12:41.884Z,6.70
2022-12-19T07:13:44.974Z,6.70
2022-12-19T07:14:53.009Z,6.70
2022-12-19T07:16:01.231Z,6.80
2022-12-19T07:17:04.680Z,6.90
2022-12-19T07:18:09.552Z,6.90
2022-12-19T07:19:12.033Z,6.90
2022-12-19T07:20:15.491Z,6.90
2022-12-19T07:21:17.429Z,6.90
2022-12-19T07:22:19.284Z,6.90
2022-12-19T07:23:22.699Z,6.90
2022-12-19T07:24:24.595Z,6.90
2022-12-19T07:25:26.390Z,6.90
2022-12-19T07:26:28.225Z,6.90
2022-12-19T07:27:35.652Z,6.90
2022-12-19T07:28:38.376Z,6.90
2022-12-19T07:29:40.150Z,6.90
2022-12-19T07:30:43.438Z,6.90
2022-12-19T07:31:45.255Z,6.90
2022-12-19T07:32:47.112Z,6.90
2022-12-19T07:33:49.117Z,6.80
2022-12-19T07:34:53.644Z,6.90
2022-12-19T07:35:55.609Z,6.90
2022-12-19T07:36:57.464Z,6.90
2022-12-19T07:38:04.126Z,6.90
2022-12-19T07:39:06.105Z,6.90
2022-12-19T07:40:08.351Z,6.90
2022-12-19T07:41:10.232Z,6.90
2022-12-19T07:42:12.071Z,6.90
2022-12-19T07:43:13.992Z,7.00
2022-12-19T07:44:17.636Z,7.00
2022-12-19T07:45:19.483Z,7.00
2022-12-19T07:46:22.036Z,7.10
2022-12-19T07:47:23.860Z,7.10
2022-12-19T07:48:26.408Z,7.10
2022-12-19T07:49:28.168Z,7.20
2022-12-19T07:50:30.282Z,7.20
2022-12-19T07:51:32.105Z,7.20
2022-12-19T07:52:34.039Z,7.20
2022-12-19T07:53:36.749Z,7.30
2022-12-19T07:54:38.497Z,7.30
2022-12-19T07:55:40.342Z,7.30
2022-12-19T07:56:42.188Z,7.30
2022-12-19T07:57:46.497Z,7.30
2022-12-19T07:58:48.461Z,7.30
2022-12-19T07:59:50.334Z,7.30
2022-12-19T08:01:01.010Z,7.30
2022-12-19T08:02:03.012Z,7.30
2022-12-19T08:03:04.970Z,7.30
2022-12-19T08:04:07.139Z,7.30
2022-12-19T08:05:09.559Z,7.20
2022-12-19T08:06:11.449Z,7.20
2022-12-19T08:07:13.310Z,7.20
2022-12-19T08:08:15.087Z,7.20
2022-12-19T08:09:16.982Z,7.20
2022-12-19T08:10:19.951Z,7.20
2022-12-19T08:11:26.476Z,7.30
2022-12-19T08:12:28.535Z,7.30
2022-12-19T08:13:37.207Z,7.30
2022-12-19T08:14:40.733Z,7.30
2022-12-19T08:15:42.505Z,7.40
2022-12-19T08:17:18.873Z,7.40
2022-12-19T08:18:06.103Z,7.40
2022-12-19T08:19:09.136Z,7.40
2022-12-19T08:20:11.895Z,7.50
2022-12-19T08:21:14.102Z,7.50
2022-12-19T08:22:16.569Z,7.50
2022-12-19T08:23:22.051Z,7.50
2022-12-19T08:24:23.794Z,7.50
2022-12-19T08:25:26.301Z,7.50
2022-12-19T08:26:31.253Z,7.50
2022-12-19T08:27:38.633Z,7.50
2022-12-19T08:28:40.610Z,7.60
2022-12-19T08:29:42.369Z,7.60
2022-12-19T08:30:44.241Z,7.60
2022-12-19T08:31:46.063Z,7.60
2022-12-19T08:32:49.055Z,7.60
2022-12-19T08:33:53.366Z,7.60
2022-12-19T08:34:56.667Z,7.60
2022-12-19T08:35:58.457Z,7.70
2022-12-19T08:37:00.236Z,7.70
2022-12-19T08:38:03.322Z,7.70
2022-12-19T08:39:05.816Z,7.70
2022-12-19T08:40:08.679Z,7.70
2022-12-19T08:41:12.003Z,7.70
2022-12-19T08:42:13.781Z,7.70
2022-12-19T08:43:15.639Z,7.80
2022-12-19T08:44:17.867Z,7.70
2022-12-19T08:45:21.191Z,7.70
2022-12-19T08:46:24.043Z,7.80
2022-12-19T08:47:25.863Z,7.80
2022-12-19T08:48:27.974Z,7.80
2022-12-19T08:49:29.718Z,7.80
2022-12-19T08:50:31.925Z,7.80
2022-12-19T08:51:33.915Z,7.80
2022-12-19T08:52:35.944Z,7.80
2022-12-19T08:53:40.343Z,7.80
2022-12-19T08:54:46.245Z,7.80
2022-12-19T08:55:49.447Z,7.80
2022-12-19T08:56:51.287Z,7.80
2022-12-19T08:57:53.074Z,7.80
2022-12-19T08:58:56.055Z,7.80
2022-12-19T08:59:57.923Z,7.80
2022-12-19T09:01:05.675Z,7.80
2022-12-19T09:02:09.616Z,7.80
2022-12-19T09:03:12.093Z,7.80
2022-12-19T09:05:22.963Z,7.80
2022-12-19T09:06:01.494Z,7.80
2022-12-19T09:06:59.332Z,7.80
2022-12-19T09:08:01.865Z,7.80
2022-12-19T09:09:06.664Z,7.70
2022-12-19T09:10:10.057Z,7.70
2022-12-19T09:11:16.522Z,7.70
2022-12-19T09:12:18.737Z,7.80
2022-12-19T09:13:20.628Z,7.70
2022-12-19T09:14:23.657Z,7.80
2022-12-19T09:15:25.587Z,7.80
2022-12-19T09:16:29.579Z,7.80
2022-12-19T09:17:33.333Z,7.80
2022-12-19T09:18:37.049Z,7.90
2022-12-19T09:19:38.895Z,7.90
2022-12-19T09:20:41.703Z,7.90
2022-12-19T09:21:43.852Z,7.90
2022-12-19T09:22:45.688Z,7.90
2022-12-19T09:23:53.140Z,7.90
2022-12-19T09:24:55.158Z,7.90
2022-12-19T09:26:02.519Z,7.90
2022-12-19T09:27:04.481Z,7.90
2022-12-19T09:29:32.220Z,7.90
2022-12-19T09:30:37.151Z,8.00
2022-12-19T09:31:39.122Z,8.00
2022-12-19T09:32:41.527Z,8.00
2022-12-19T09:33:44.408Z,8.00
2022-12-19T09:34:47.622Z,8.00
2022-12-19T09:35:54.450Z,8.00
2022-12-19T09:36:59.090Z,8.10
2022-12-19T09:38:01.416Z,8.10
2022-12-19T09:39:04.898Z,8.10
2022-12-19T09:40:07.415Z,8.10
2022-12-19T09:41:29.666Z,8.10
2022-12-19T09:42:41.706Z,8.00
2022-12-19T09:44:08.414Z,8.10
2022-12-19T09:45:36.547Z,8.00
2022-12-19T09:47:03.150Z,8.00
2022-12-19T09:48:22.473Z,8.00
2022-12-19T09:49:41.960Z,8.00
2022-12-19T09:50:56.616Z,8.00
2022-12-19T09:52:27.340Z,8.00
2022-12-19T09:53:42.528Z,8.10
2022-12-19T09:54:52.716Z,8.10
2022-12-19T09:55:54.816Z,8.10
2022-12-19T09:57:01.650Z,8.00
2022-12-19T09:58:26.587Z,8.00
2022-12-19T09:59:39.861Z,8.00
2022-12-19T10:01:00.040Z,8.00
2022-12-19T10:02:13.669Z,8.00
2022-12-19T10:03:40.946Z,8.00
2022-12-19T10:04:51.262Z,8.10
2022-12-19T10:07:12.935Z,8.10
2022-12-19T10:08:05.385Z,8.10
2022-12-19T10:10:27.557Z,8.10
2022-12-19T10:12:37.820Z,8.10
2022-12-19T10:12:43.319Z,8.10
2022-12-19T10:14:13.415Z,8.10
2022-12-19T10:15:19.830Z,8.10
2022-12-19T10:17:22.738Z,8.10
2022-12-19T10:18:35.123Z,8.20
2022-12-19T10:19:42.859Z,8.10
2022-12-19T10:20:54.895Z,8.20
2022-12-19T10:22:21.974Z,8.20
2022-12-19T10:23:42.499Z,8.20
2022-12-19T10:25:08.197Z,8.30
2022-12-19T10:26:22.496Z,8.30
2022-12-19T10:27:59.203Z,8.30
2022-12-19T10:29:27.123Z,8.30
2022-12-19T10:30:43.357Z,8.30
2022-12-19T10:31:58.509Z,8.40
2022-12-19T10:33:14.319Z,8.40
2022-12-19T10:34:41.204Z,8.40
2022-12-19T10:35:46.968Z,8.40
2022-12-19T10:37:25.571Z,8.40
2022-12-19T10:39:10.725Z,8.40
2022-12-19T10:40:45.666Z,8.40
2022-12-19T10:41:51.195Z,8.40
2022-12-19T10:43:25.865Z,8.40
2022-12-19T10:44:40.294Z,8.40
2022-12-19T10:45:49.971Z,8.50
2022-12-19T10:46:53.143Z,8.50
2022-12-19T10:47:59.027Z,8.50
2022-12-19T10:49:16.769Z,8.50
2022-12-19T10:50:23.407Z,8.50
2022-12-19T10:51:29.008Z,8.50
2022-12-19T10:52:53.003Z,8.50
2022-12-19T10:53:57.427Z,8.50
2022-12-19T10:55:01.593Z,8.50
2022-12-19T10:56:21.052Z,8.50
2022-12-19T10:57:29.427Z,8.60
2022-12-19T10:58:37.022Z,8.50
2022-12-19T10:59:39.063Z,8.60
2022-12-19T11:01:11.197Z,8.50
2022-12-19T11:02:38.643Z,8.50
2022-12-19T11:03:43.576Z,8.50
2022-12-19T11:04:48.372Z,8.50
2022-12-19T11:06:03.568Z,8.50
2022-12-19T11:07:17.597Z,8.50
2022-12-19T11:08:28.654Z,8.50
2022-12-19T11:10:03.739Z,8.50
2022-12-19T11:15:19.535Z,8.50
2022-12-19T11:16:45.785Z,8.50
2022-12-19T11:19:13.584Z,8.50
2022-12-19T11:19:51.519Z,8.60
2022-12-19T11:22:38.028Z,8.60
2022-12-19T11:28:06.730Z,8.60
2022-12-19T11:29:19.252Z,8.50
2022-12-19T11:29:31.325Z,8.50
2022-12-19T11:29:34.224Z,8.50
2022-12-19T11:30:41.129Z,8.60
2022-12-19T11:30:44.320Z,8.60
2022-12-19T11:30:46.601Z,8.60
2022-12-19T11:32:49.182Z,8.70
2022-12-19T11:34:01.845Z,8.70
2022-12-19T11:35:37.185Z,8.70
2022-12-19T11:36:49.180Z,8.70
2022-12-19T11:38:01.457Z,8.80
2022-12-19T11:39:04.964Z,8.80
2022-12-19T11:40:17.379Z,8.80
2022-12-19T11:41:28.645Z,8.80
2022-12-19T11:43:10.799Z,8.80
2022-12-19T11:44:46.703Z,8.80
2022-12-19T11:46:06.320Z,8.90
2022-12-19T11:47:32.602Z,8.90
2022-12-19T11:48:49.062Z,8.90
2022-12-19T11:50:32.249Z,8.90
2022-12-19T11:52:03.019Z,8.90
2022-12-19T11:53:44.013Z,8.90
2022-12-19T11:54:57.450Z,9.00
2022-12-19T11:56:04.828Z,8.90
2022-12-19T11:57:17.117Z,9.00
2022-12-19T11:58:19.214Z,9.00
2022-12-19T11:59:31.964Z,9.00
2022-12-19T12:00:35.010Z,9.00
2022-12-19T12:01:54.301Z,9.00
2022-12-19T12:03:12.318Z,9.00
2022-12-19T12:04:52.297Z,9.10
2022-12-19T12:05:58.452Z,9.10
2022-12-19T12:07:04.213Z,9.10
2022-12-19T12:10:19.509Z,9.10
2022-12-19T12:14:50.856Z,9.10
2022-12-19T12:20:25.256Z,9.10
2022-12-19T12:24:44.215Z,9.10
2022-12-19T12:26:43.670Z,9.10
2022-12-19T12:30:41.660Z,9.10
2022-12-19T12:31:00.747Z,9.10
2022-12-19T12:31:06.542Z,9.00
2022-12-19T12:31:27.996Z,9.00
2022-12-19T12:31:41.321Z,9.00
2022-12-19T12:31:50.784Z,9.00
2022-12-19T12:31:54.110Z,9.00
2022-12-19T12:32:05.403Z,9.00
2022-12-19T12:32:06.506Z,9.00
2022-12-19T12:35:33.277Z,9.10
2022-12-19T12:35:33.433Z,9.10
2022-12-19T12:38:21.811Z,9.10
2022-12-19T12:39:45.688Z,9.10
2022-12-19T12:41:19.418Z,9.10
2022-12-19T12:42:53.520Z,9.10
2022-12-19T12:44:12.660Z,9.10
2022-12-19T12:45:25.658Z,9.20
2022-12-19T12:46:33.017Z,9.20
2022-12-19T12:47:36.253Z,9.20
2022-12-19T12:48:46.354Z,9.20
2022-12-19T12:50:05.533Z,9.20
2022-12-19T12:51:09.188Z,9.20
2022-12-19T12:52:16.778Z,9.20
2022-12-19T12:53:26.790Z,9.20
2022-12-19T12:54:39.383Z,9.30
2022-12-19T12:55:43.162Z,9.30
2022-12-19T12:56:47.523Z,9.30
2022-12-19T12:57:49.974Z,9.30
2022-12-19T12:58:53.922Z,9.30
2022-12-19T13:00:25.203Z,9.30
2022-12-19T13:01:30.270Z,9.30
2022-12-19T13:02:34.744Z,9.30
2022-12-19T13:03:42.321Z,9.30
2022-12-19T13:04:57.603Z,9.30
2022-12-19T13:06:06.667Z,9.30
2022-12-19T13:07:25.303Z,9.40
2022-12-19T13:08:39.428Z,9.40
2022-12-19T13:09:42.638Z,9.40
2022-12-19T13:10:58.322Z,9.40
2022-12-19T13:12:18.704Z,9.40
2022-12-19T13:13:25.765Z,9.30
2022-12-19T13:14:33.791Z,9.30
2022-12-19T13:15:39.436Z,9.30
2022-12-19T13:16:44.084Z,9.30
2022-12-19T13:17:49.441Z,9.30
2022-12-19T13:19:27.542Z,9.30
2022-12-19T13:20:30.581Z,9.40
2022-12-19T13:22:05.546Z,9.30
2022-12-19T13:23:23.973Z,9.30
2022-12-19T13:24:37.776Z,9.40
2022-12-19T13:25:40.277Z,9.30
2022-12-19T13:26:51.001Z,9.40
2022-12-19T13:28:02.786Z,9.40
2022-12-19T13:29:30.827Z,9.40
2022-12-19T13:30:50.139Z,9.40
2022-12-19T13:32:10.928Z,9.40
2022-12-19T13:33:13.115Z,9.40
2022-12-19T13:34:19.560Z,9.40
2022-12-19T13:39:12.309Z,9.40
2022-12-19T13:39:59.500Z,9.40
2022-12-19T13:39:59.625Z,9.40
2022-12-19T13:40:10.799Z,9.40
2022-12-19T13:42:00.663Z,9.40
2022-12-19T13:43:35.846Z,9.30
2022-12-19T13:44:41.230Z,9.30
2022-12-19T13:46:05.227Z,9.30
2022-12-19T13:47:08.034Z,9.30
2022-12-19T13:48:16.920Z,9.30
2022-12-19T13:49:31.762Z,9.30
2022-12-19T13:50:40.655Z,9.30
2022-12-19T13:51:50.528Z,9.20
2022-12-19T13:52:55.245Z,9.20
2022-12-19T13:53:59.885Z,9.20
2022-12-19T13:55:02.151Z,9.20
2022-12-19T13:56:14.921Z,9.20
2022-12-19T13:57:24.605Z,9.20
2022-12-19T13:58:42.411Z,9.20
2022-12-19T13:59:59.410Z,9.20
2022-12-19T14:01:21.012Z,9.10
2022-12-19T14:02:28.969Z,9.10
2022-12-19T14:03:45.025Z,9.10
2022-12-19T14:04:47.692Z,9.10
2022-12-19T14:06:15.965Z,9.00
2022-12-19T14:07:41.181Z,9.10
2022-12-19T14:08:47.992Z,9.10
2022-12-19T14:11:29.041Z,9.00
2022-12-19T14:12:22.409Z,9.00
2022-12-19T14:14:01.508Z,9.00
2022-12-19T14:15:14.075Z,9.00
2022-12-19T14:16:18.865Z,9.00
2022-12-19T14:17:21.853Z,8.90
2022-12-19T14:18:44.411Z,8.90
2022-12-19T14:19:50.711Z,8.90
2022-12-19T14:22:07.802Z,8.90
2022-12-19T14:22:29.547Z,8.90
2022-12-19T14:23:37.013Z,8.90
2022-12-19T14:25:06.981Z,8.90
2022-12-19T14:28:18.524Z,8.90
2022-12-19T14:28:21.386Z,8.90
2022-12-19T14:30:30.293Z,8.90
2022-12-19T14:31:19.466Z,8.90
2022-12-19T14:33:38.975Z,8.90
2022-12-19T14:36:07.174Z,8.90
2022-12-19T14:36:53.080Z,8.90
2022-12-19T14:39:22.829Z,8.90
2022-12-19T14:39:36.573Z,8.90
2022-12-19T14:40:50.851Z,8.80
2022-12-19T14:43:57.518Z,8.80
2022-12-19T14:51:42.381Z,8.90
2022-12-19T14:54:10.512Z,8.80
2022-12-19T14:54:21.438Z,8.80
2022-12-19T14:54:22.390Z,8.70
2022-12-19T14:54:25.677Z,8.70
2022-12-19T14:54:26.179Z,8.80
2022-12-19T14:54:40.477Z,8.80
2022-12-19T14:56:00.471Z,8.80
2022-12-19T14:57:04.607Z,8.90
2022-12-19T14:58:53.529Z,8.90
2022-12-19T14:59:46.407Z,8.90
2022-12-19T15:01:09.763Z,9.00
2022-12-19T15:02:32.226Z,9.00
2022-12-19T15:04:49.245Z,9.00
2022-12-19T15:05:16.907Z,9.10
2022-12-19T15:07:07.333Z,9.10
2022-12-19T15:07:45.986Z,9.10
2022-12-19T15:09:02.341Z,9.10
2022-12-19T15:11:07.711Z,9.20
2022-12-19T15:13:30.498Z,9.20
2022-12-19T15:14:51.166Z,9.20
2022-12-19T15:15:07.981Z,9.10
2022-12-19T15:16:29.048Z,9.10
2022-12-19T15:17:31.734Z,9.10
2022-12-19T15:18:33.563Z,9.10
2022-12-19T15:19:35.645Z,9.10
2022-12-19T15:20:42.141Z,9.10
2022-12-19T15:21:44.211Z,9.20
2022-12-19T15:22:50.753Z,9.20
2022-12-19T15:23:52.785Z,9.20
2022-12-19T15:24:54.566Z,9.20
2022-12-19T15:26:04.002Z,9.30
2022-12-19T15:27:15.312Z,9.30
2022-12-19T15:28:23.400Z,9.40
2022-12-19T15:29:27.323Z,9.40
2022-12-19T15:30:33.609Z,9.40
2022-12-19T15:31:41.368Z,9.40
2022-12-19T15:32:46.064Z,9.40
2022-12-19T15:34:23.444Z,9.40
2022-12-19T15:35:15.070Z,9.40
2022-12-19T15:36:16.868Z,9.40
2022-12-19T15:37:19.682Z,9.40
2022-12-19T15:38:22.126Z,9.40
2022-12-19T15:39:26.023Z,9.40
2022-12-19T15:40:28.075Z,9.40
2022-12-19T15:41:30.829Z,9.40
2022-12-19T15:42:32.893Z,9.40
2022-12-19T15:44:03.204Z,9.40
2022-12-19T15:45:00.396Z,9.40
2022-12-19T15:46:02.283Z,9.40